Time;durP1;ratioP1;P1;durP2;ratioP2;P2;SDS_P1;SDS_P2;PMS_P1;PMS_P2;Temp;Humidity;BMP_temperature;BMP_pressure;BME280_temperature;BME280_humidity;BME280_pressure;Samples;Min_cycle;Max_cycle;Signal;HPM_P1;HPM_P2
2023/04/01 00:00:55;;;;;;;3.53;1.63;;;7.60;99.90;;;;;;5095311;28;20416;-42
2023/04/01 00:03:21;;;;;;;3.37;1.30;;;7.60;99.90;;;;;;5095377;28;20452;-43
2023/04/01 00:05:47;;;;;;;2.30;1.40;;;7.70;99.90;;;;;;5094739;28;20434;-43
2023/04/01 00:08:13;;;;;;;4.00;0.90;;;7.70;99.90;;;;;;5094387;28;20454;-42
2023/04/01 00:10:39;;;;;;;3.60;1.30;;;7.70;99.90;;;;;;5095798;28;20644;-43
2023/04/01 00:13:05;;;;;;;3.10;1.00;;;7.70;99.90;;;;;;5095402;28;20430;-44
2023/04/01 00:15:31;;;;;;;5.47;0.87;;;7.70;99.90;;;;;;5095881;28;20418;-44
2023/04/01 00:17:56;;;;;;;3.27;1.17;;;7.70;99.90;;;;;;5095437;28;20181;-43
2023/04/01 00:20:22;;;;;;;7.30;1.23;;;7.70;99.90;;;;;;5095298;28;20454;-44
2023/04/01 00:22:48;;;;;;;3.70;1.20;;;7.70;99.90;;;;;;5095401;28;20180;-44
2023/04/01 00:25:14;;;;;;;2.73;0.97;;;7.60;99.90;;;;;;5096080;28;20497;-44
2023/04/01 00:27:40;;;;;;;5.00;1.30;;;7.60;99.90;;;;;;5095057;28;20240;-45
2023/04/01 00:30:07;;;;;;;3.57;1.30;;;7.60;99.90;;;;;;5095120;28;20488;-45
2023/04/01 00:32:33;;;;;;;9.20;1.37;;;7.70;99.90;;;;;;5091187;28;20525;-44
2023/04/01 00:34:59;;;;;;;3.73;1.10;;;7.70;99.90;;;;;;5094240;28;20402;-44
2023/04/01 00:37:26;;;;;;;2.70;1.03;;;7.70;99.90;;;;;;5093693;28;20430;-43
2023/04/01 00:39:52;;;;;;;3.43;1.03;;;7.70;99.90;;;;;;5093482;28;20641;-43
2023/04/01 00:42:17;;;;;;;2.27;1.03;;;7.70;99.90;;;;;;5093726;28;20639;-43
2023/04/01 00:44:47;;;;;;;2.60;0.90;;;7.60;99.90;;;;;;5094544;28;20595;-45
2023/04/01 00:47:12;;;;;;;3.00;1.13;;;7.60;99.90;;;;;;5094020;28;20586;-44
2023/04/01 00:49:41;;;;;;;3.63;1.20;;;7.70;99.90;;;;;;5093506;28;20462;-44
2023/04/01 00:52:08;;;;;;;2.50;0.80;;;7.70;99.90;;;;;;5076892;28;20474;-43
2023/04/01 00:54:34;;;;;;;1.70;1.33;;;7.70;99.90;;;;;;5094127;28;20449;-45
2023/04/01 00:57:13;;;;;;;2.10;0.70;;;7.70;99.90;;;;;;5094798;28;20434;-44
2023/04/01 00:59:47;;;;;;;9.53;1.63;;;7.60;99.90;;;;;;5093462;28;20587;-43
2023/04/01 01:05:51;;;;;;;4.37;1.00;;;7.60;99.90;;;;;;5095033;28;20489;-44
2023/04/01 01:08:42;;;;;;;2.87;0.90;;;7.60;99.90;;;;;;5094064;28;20442;-43
2023/04/01 01:11:12;;;;;;;1.80;0.93;;;7.60;99.90;;;;;;5056641;28;20512;-44
2023/04/01 01:13:49;;;;;;;2.77;0.60;;;7.60;99.90;;;;;;5091742;28;20483;-43
2023/04/01 01:16:44;;;;;;;5.47;1.73;;;7.60;99.90;;;;;;5090864;28;20479;-43
2023/04/01 01:19:10;;;;;;;6.83;1.27;;;7.60;99.90;;;;;;5089167;28;20411;-43
2023/04/01 01:22:09;;;;;;;3.10;1.10;;;7.60;99.90;;;;;;5095858;28;20444;-47
2023/04/01 01:24:53;;;;;;;2.43;1.10;;;7.50;99.90;;;;;;5096649;28;20195;-44
2023/04/01 01:27:20;;;;;;;6.37;0.83;;;7.50;99.90;;;;;;5096395;28;20454;-45
2023/04/01 01:29:54;;;;;;;2.83;0.90;;;7.50;99.90;;;;;;5095097;28;20450;-43
2023/04/01 01:32:47;;;;;;;1.97;0.90;;;7.50;99.90;;;;;;5099100;28;20454;-45
2023/04/01 01:35:35;;;;;;;2.83;0.70;;;7.60;99.90;;;;;;5099434;28;20429;-45
2023/04/01 01:38:08;;;;;;;3.03;0.80;;;7.60;99.90;;;;;;5099838;28;20434;-43
2023/04/01 01:40:35;;;;;;;1.93;0.80;;;7.60;99.90;;;;;;5098737;28;20429;-44
2023/04/01 01:43:05;;;;;;;2.60;0.90;;;7.50;99.90;;;;;;5099483;28;20438;-43
2023/04/01 01:45:33;;;;;;;3.37;0.80;;;7.50;99.90;;;;;;5098813;28;20804;-44
2023/04/01 01:47:59;;;;;;;5.53;1.67;;;7.50;99.90;;;;;;5098547;28;20450;-46
2023/04/01 01:50:26;;;;;;;1.90;1.10;;;7.60;99.90;;;;;;5098336;28;20473;-44
2023/04/01 01:52:51;;;;;;;4.20;0.90;;;7.50;99.90;;;;;;5098507;28;20434;-44
2023/04/01 01:55:30;;;;;;;3.70;1.00;;;7.50;99.90;;;;;;5098155;28;20521;-44
2023/04/01 01:57:59;;;;;;;4.20;0.80;;;7.50;99.90;;;;;;5098365;28;20191;-43
2023/04/01 02:00:26;;;;;;;3.47;0.87;;;7.40;99.90;;;;;;5099289;28;20410;-42
2023/04/01 02:02:53;;;;;;;1.70;0.53;;;7.50;99.90;;;;;;5099409;28;21114;-43
2023/04/01 02:05:24;;;;;;;2.50;0.80;;;7.50;99.90;;;;;;5098538;28;20430;-44
2023/04/01 02:08:00;;;;;;;1.60;0.60;;;7.40;99.90;;;;;;5098518;28;20502;-43
2023/04/01 02:10:26;;;;;;;1.27;0.60;;;7.50;99.90;;;;;;5099142;28;20464;-44
2023/04/01 02:12:54;;;;;;;2.63;0.80;;;7.50;99.90;;;;;;5098145;28;20786;-42
2023/04/01 02:15:20;;;;;;;2.10;0.50;;;7.40;99.90;;;;;;5097258;28;20422;-46
2023/04/01 02:17:47;;;;;;;1.10;0.60;;;7.40;99.90;;;;;;5097653;28;20426;-44
2023/04/01 02:20:15;;;;;;;0.90;0.47;;;7.40;99.90;;;;;;5097586;28;20418;-44
2023/04/01 02:22:46;;;;;;;1.60;0.53;;;7.40;99.90;;;;;;5097456;28;20670;-42
2023/04/01 02:25:15;;;;;;;0.90;0.50;;;7.40;99.90;;;;;;5097725;28;20457;-44
2023/04/01 02:27:43;;;;;;;1.10;0.40;;;7.40;99.90;;;;;;5097896;28;20482;-44
2023/04/01 02:30:10;;;;;;;2.40;0.40;;;7.40;99.90;;;;;;5097408;28;20474;-43
2023/04/01 02:32:37;;;;;;;1.87;0.30;;;7.30;99.90;;;;;;5096682;28;20477;-43
2023/04/01 02:35:08;;;;;;;1.07;0.60;;;7.40;99.90;;;;;;5079586;28;20426;-43
2023/04/01 02:37:33;;;;;;;1.63;0.47;;;7.40;99.90;;;;;;5096353;28;20836;-43
2023/04/01 02:40:01;;;;;;;0.90;0.30;;;7.40;99.90;;;;;;5097120;28;20578;-45
2023/04/01 02:42:26;;;;;;;1.73;0.40;;;7.30;99.90;;;;;;5097586;28;20176;-44
2023/04/01 02:44:52;;;;;;;1.00;0.40;;;7.30;99.90;;;;;;5098606;28;20425;-44
2023/04/01 02:47:17;;;;;;;1.23;0.40;;;7.30;99.90;;;;;;5098128;28;20589;-44
2023/04/01 02:49:43;;;;;;;0.80;0.37;;;7.40;99.90;;;;;;5097649;28;20238;-42
2023/04/01 02:52:09;;;;;;;1.40;0.67;;;7.40;99.90;;;;;;5098602;28;20248;-44
2023/04/01 02:54:34;;;;;;;1.40;0.50;;;7.30;99.90;;;;;;5098468;28;20180;-43
2023/04/01 02:57:00;;;;;;;0.70;0.30;;;7.20;99.90;;;;;;5098319;28;20558;-44
2023/04/01 02:59:26;;;;;;;3.17;0.50;;;7.20;99.90;;;;;;5096563;28;20442;-42
2023/04/01 03:01:51;;;;;;;1.77;0.50;;;7.20;99.90;;;;;;5095614;28;20212;-45
2023/04/01 03:04:17;;;;;;;1.40;0.50;;;7.20;99.90;;;;;;5096611;28;20180;-44
2023/04/01 03:06:42;;;;;;;1.63;0.47;;;7.20;99.90;;;;;;5096840;28;20180;-45
2023/04/01 03:09:08;;;;;;;2.40;0.50;;;7.10;99.90;;;;;;5097085;28;20227;-44
2023/04/01 03:11:35;;;;;;;1.00;0.60;;;7.10;99.90;;;;;;5095395;28;20578;-44
2023/04/01 03:14:00;;;;;;;2.00;0.50;;;7.10;99.90;;;;;;5094403;28;20414;-44
2023/04/01 03:16:26;;;;;;;0.90;0.40;;;7.10;99.90;;;;;;5095833;28;20690;-44
2023/04/01 03:18:53;;;;;;;0.80;0.40;;;7.10;99.90;;;;;;5094941;28;20181;-42
2023/04/01 03:21:21;;;;;;;0.90;0.57;;;7.10;99.90;;;;;;5097462;28;20431;-43
2023/04/01 03:23:46;;;;;;;1.60;0.50;;;7.10;99.90;;;;;;5096505;28;20843;-43
2023/04/01 03:26:13;;;;;;;1.73;0.80;;;7.10;61.80;;;;;;5095082;28;20816;-45
2023/04/01 03:28:38;;;;;;;1.20;0.40;;;7.10;99.90;;;;;;5096318;28;20606;-45
2023/04/01 03:31:04;;;;;;;2.00;0.70;;;7.10;99.90;;;;;;5096748;28;20591;-45
2023/04/01 03:33:31;;;;;;;0.90;0.30;;;7.10;83.10;;;;;;5095935;28;20563;-44
2023/04/01 03:35:56;;;;;;;1.10;0.60;;;7.10;33.40;;;;;;5095513;28;20414;-44
2023/04/01 03:38:22;;;;;;;3.00;0.63;;;7.20;7.20;;;;;;5095737;28;20525;-42
2023/04/01 03:40:48;;;;;;;2.60;0.43;;;7.10;20.60;;;;;;5095789;28;20181;-43
2023/04/01 03:43:13;;;;;;;2.07;0.60;;;7.10;15.70;;;;;;5094579;28;20187;-46
2023/04/01 03:45:46;;;;;;;1.90;0.47;;;7.10;71.50;;;;;;5095338;28;20184;-43
2023/04/01 03:48:12;;;;;;;1.63;0.50;;;7.10;99.90;;;;;;5096050;28;20180;-44
2023/04/01 03:50:37;;;;;;;1.33;0.50;;;7.10;21.60;;;;;;5095550;28;20477;-44
2023/04/01 03:53:03;;;;;;;1.77;1.07;;;7.20;1.00;;;;;;5095332;28;20258;-43
2023/04/01 03:55:29;;;;;;;1.27;0.53;;;7.10;1.00;;;;;;5096596;28;20426;-43
2023/04/01 03:57:54;;;;;;;3.30;0.43;;;7.10;1.00;;;;;;5095254;28;20240;-42
2023/04/01 04:00:20;;;;;;;2.23;0.63;;;7.10;1.00;;;;;;5095789;28;20240;-43
2023/04/01 04:02:45;;;;;;;0.80;0.43;;;7.10;1.00;;;;;;5095450;28;20186;-44
2023/04/01 04:05:13;;;;;;;0.90;0.50;;;7.10;1.00;;;;;;5095815;28;20237;-44
2023/04/01 04:07:38;;;;;;;2.40;0.47;;;7.00;1.00;;;;;;5095742;28;20181;-44
2023/04/01 04:10:05;;;;;;;1.00;0.33;;;7.00;1.00;;;;;;5095542;28;20457;-43
2023/04/01 04:12:30;;;;;;;2.70;0.67;;;6.90;2.80;;;;;;5094552;28;20187;-42
2023/04/01 04:14:56;;;;;;;1.67;0.40;;;6.90;9.70;;;;;;5096014;28;20415;-44
2023/04/01 04:17:22;;;;;;;1.27;0.70;;;6.80;23.70;;;;;;5096388;28;20203;-44
2023/04/01 04:19:47;;;;;;;2.10;0.40;;;6.80;79.60;;;;;;5096534;28;20180;-42
2023/04/01 04:22:13;;;;;;;1.57;0.47;;;6.80;47.70;;;;;;5097046;28;20473;-44
2023/04/01 04:24:39;;;;;;;1.57;0.50;;;6.80;75.50;;;;;;5096520;28;20591;-43
2023/04/01 04:27:05;;;;;;;2.07;0.77;;;6.70;99.90;;;;;;5095815;28;20867;-45
2023/04/01 04:29:30;;;;;;;1.10;0.43;;;6.70;99.90;;;;;;5092696;28;20597;-42
2023/04/01 04:31:56;;;;;;;1.00;0.50;;;6.70;99.90;;;;;;5091194;28;20411;-44
2023/04/01 04:34:22;;;;;;;1.50;0.50;;;6.60;99.90;;;;;;5092449;28;20316;-44
2023/04/01 04:36:48;;;;;;;1.10;0.30;;;6.60;99.90;;;;;;5093024;28;20247;-43
2023/04/01 04:39:14;;;;;;;2.00;0.70;;;6.60;99.90;;;;;;5091974;28;20475;-43
2023/04/01 04:41:40;;;;;;;2.10;0.70;;;6.60;99.90;;;;;;5093040;28;20647;-44
2023/04/01 04:44:05;;;;;;;4.67;1.13;;;6.60;99.90;;;;;;5093932;28;20422;-42
2023/04/01 04:46:31;;;;;;;2.90;0.50;;;6.50;99.90;;;;;;5094690;28;20435;-43
2023/04/01 04:48:57;;;;;;;2.10;0.70;;;6.50;99.90;;;;;;5094455;28;20296;-43
2023/04/01 04:51:22;;;;;;;6.73;1.53;;;6.50;99.90;;;;;;5093314;28;20273;-43
2023/04/01 04:53:49;;;;;;;4.40;0.80;;;6.50;99.90;;;;;;5093251;28;20183;-43
2023/04/01 04:56:19;;;;;;;4.20;0.53;;;6.50;99.90;;;;;;5094521;28;20460;-48
2023/04/01 04:58:45;;;;;;;3.07;0.90;;;6.60;99.90;;;;;;5094877;28;20430;-45
2023/04/01 05:01:13;;;;;;;2.13;0.77;;;6.60;99.90;;;;;;5093905;28;20777;-44
2023/04/01 05:03:39;;;;;;;6.20;1.17;;;6.60;99.90;;;;;;5092682;28;20433;-45
2023/04/01 05:06:06;;;;;;;2.90;0.83;;;6.70;99.90;;;;;;5091697;28;20807;-43
2023/04/01 05:08:35;;;;;;;3.70;1.07;;;6.80;99.90;;;;;;5093617;28;20434;-43
2023/04/01 05:11:01;;;;;;;2.30;0.70;;;6.90;99.90;;;;;;5093643;28;20716;-43
2023/04/01 05:13:27;;;;;;;4.67;0.83;;;6.90;99.90;;;;;;5093424;28;20933;-47
2023/04/01 05:15:53;;;;;;;3.47;0.73;;;7.00;99.90;;;;;;5091881;28;20406;-44
2023/04/01 05:18:18;;;;;;;3.30;0.90;;;7.10;99.90;;;;;;5090644;28;20399;-46
2023/04/01 05:20:49;;;;;;;2.17;0.80;;;7.10;99.90;;;;;;5092899;28;20521;-43
2023/04/01 05:23:15;;;;;;;3.27;0.90;;;7.00;99.90;;;;;;5091406;28;20422;-43
2023/04/01 05:25:41;;;;;;;5.40;0.80;;;7.10;99.90;;;;;;5092599;28;20468;-49
2023/04/01 05:28:07;;;;;;;1.50;0.70;;;7.10;99.90;;;;;;5092786;28;20747;-44
2023/04/01 05:30:33;;;;;;;2.10;0.87;;;7.20;63.30;;;;;;5089679;28;20458;-48
2023/04/01 05:32:58;;;;;;;2.10;0.80;;;7.30;1.00;;;;;;5091223;28;20562;-44
2023/04/01 05:35:24;;;;;;;5.57;1.80;;;7.30;1.00;;;;;;5092261;28;20207;-44
2023/04/01 05:37:50;;;;;;;3.10;0.80;;;7.30;1.00;;;;;;5092973;28;20558;-43
2023/04/01 05:40:15;;;;;;;2.17;0.80;;;7.40;1.00;;;;;;5092583;28;20422;-42
2023/04/01 05:42:41;;;;;;;3.00;0.77;;;7.40;1.00;;;;;;5092942;28;20180;-46
2023/04/01 05:45:08;;;;;;;2.40;0.77;;;7.40;1.00;;;;;;5094162;28;20468;-44
2023/04/01 05:47:34;;;;;;;2.00;0.57;;;7.40;1.00;;;;;;5093149;28;20184;-44
2023/04/01 05:49:59;;;;;;;3.17;0.70;;;7.40;1.00;;;;;;5093005;28;20972;-44
2023/04/01 05:52:25;;;;;;;1.87;0.80;;;7.50;1.00;;;;;;5093254;28;20221;-42
2023/04/01 05:54:51;;;;;;;2.63;0.70;;;7.50;1.00;;;;;;5092603;28;20240;-45
2023/04/01 05:57:16;;;;;;;1.73;0.70;;;7.60;99.90;;;;;;5092346;28;20176;-43
2023/04/01 05:59:42;;;;;;;3.17;0.87;;;7.70;99.90;;;;;;5093333;28;20172;-46
2023/04/01 06:02:10;;;;;;;1.33;0.70;;;7.70;2.50;;;;;;5091926;28;20172;-45
2023/04/01 06:04:38;;;;;;;2.40;0.80;;;7.90;25.50;;;;;;5092205;28;20176;-44
2023/04/01 06:07:14;;;;;;;5.00;0.90;;;7.90;1.00;;;;;;5093559;28;20415;-43
2023/04/01 06:09:41;;;;;;;2.83;0.93;;;8.00;1.00;;;;;;5095244;28;20482;-48
2023/04/01 06:12:21;;;;;;;3.10;0.97;;;8.00;1.00;;;;;;5094244;28;20732;-46
2023/04/01 06:15:27;;;;;;;2.63;0.50;;;8.10;1.00;;;;;;5093371;28;20410;-41
2023/04/01 06:18:22;;;;;;;1.87;0.77;;;8.10;99.90;;;;;;5095069;28;20436;-42
2023/04/01 06:20:51;;;;;;;4.67;1.03;;;8.10;99.90;;;;;;5064720;28;20453;-43
2023/04/01 06:23:44;;;;;;;1.40;0.73;;;8.20;99.90;;;;;;5097351;28;20406;-44
2023/04/01 06:26:23;;;;;;;2.20;0.60;;;8.30;99.90;;;;;;5097814;28;20414;-44
2023/04/01 06:29:20;;;;;;;2.50;0.63;;;8.30;1.00;;;;;;5097677;28;20481;-45
2023/04/01 06:32:05;;;;;;;3.17;0.67;;;8.30;99.90;;;;;;5097042;28;20724;-43
2023/04/01 06:35:08;;;;;;;3.40;0.80;;;8.20;99.90;;;;;;5096313;28;20573;-43
2023/04/01 06:38:15;;;;;;;3.23;1.43;;;8.10;99.90;;;;;;5094983;28;20517;-44
2023/04/01 06:41:01;;;;;;;1.83;0.70;;;8.10;1.00;;;;;;5094461;28;20438;-45
2023/04/01 06:43:45;;;;;;;1.50;0.57;;;8.00;1.00;;;;;;5093531;28;20406;-44
2023/04/01 06:46:24;;;;;;;2.63;0.70;;;8.00;1.00;;;;;;5093373;28;20490;-43
2023/04/01 06:49:27;;;;;;;2.00;0.77;;;8.00;1.00;;;;;;5092674;28;20471;-43
2023/04/01 06:52:12;;;;;;;2.50;0.70;;;8.00;1.00;;;;;;5094604;28;20414;-42
2023/04/01 06:54:42;;;;;;;2.17;0.70;;;8.00;2.00;;;;;;5095375;28;20398;-45
2023/04/01 06:57:20;;;;;;;2.93;0.60;;;8.00;98.70;;;;;;5094533;28;20852;-46
2023/04/01 06:59:45;;;;;;;1.83;0.93;;;8.00;59.20;;;;;;5094615;28;20508;-43
2023/04/01 07:02:43;;;;;;;2.73;0.80;;;8.00;99.90;;;;;;5095094;28;20625;-42
2023/04/01 07:05:11;;;;;;;1.63;0.53;;;8.10;99.90;;;;;;5093015;28;20204;-45
2023/04/01 07:07:46;;;;;;;2.70;0.90;;;8.20;62.60;;;;;;5094861;28;20757;-43
2023/04/01 07:10:22;;;;;;;1.97;0.77;;;8.20;71.50;;;;;;5092982;28;20465;-43
2023/04/01 07:12:51;;;;;;;2.00;0.90;;;8.30;1.00;;;;;;5094400;28;20421;-46
2023/04/01 07:15:25;;;;;;;1.60;0.60;;;8.30;1.00;;;;;;5093580;28;20411;-44
2023/04/01 07:18:00;;;;;;;2.10;0.77;;;8.30;1.00;;;;;;5093969;28;20398;-42
2023/04/01 07:20:33;;;;;;;2.10;1.47;;;8.30;1.00;;;;;;5077691;28;20851;-44
2023/04/01 07:23:00;;;;;;;4.83;3.90;;;8.30;1.00;;;;;;5096155;28;20815;-42
2023/04/01 07:25:33;;;;;;;3.73;1.37;;;8.40;1.00;;;;;;5095037;28;20840;-43
2023/04/01 07:28:13;;;;;;;2.57;0.80;;;8.30;1.00;;;;;;5095275;28;20554;-43
2023/04/01 07:30:54;;;;;;;1.87;0.97;;;8.30;1.00;;;;;;5079325;28;20906;-44
2023/04/01 07:33:44;;;;;;;2.50;1.00;;;8.30;1.00;;;;;;5094859;28;20509;-42
2023/04/01 07:36:25;;;;;;;4.57;2.53;;;8.30;1.00;;;;;;5095129;28;20879;-44
2023/04/01 07:39:13;;;;;;;2.87;0.70;;;8.40;1.00;;;;;;5095659;28;20406;-41
2023/04/01 07:41:57;;;;;;;2.80;1.00;;;8.40;1.00;;;;;;5081952;28;20910;-41
2023/04/01 07:44:36;;;;;;;1.50;0.70;;;8.40;1.00;;;;;;5095996;28;20410;-43
2023/04/01 07:47:27;;;;;;;3.23;1.47;;;8.50;1.00;;;;;;5093522;28;20490;-45
2023/04/01 07:50:17;;;;;;;2.53;0.97;;;8.50;1.00;;;;;;5091394;28;20840;-43
2023/04/01 07:53:13;;;;;;;3.57;0.70;;;8.60;1.00;;;;;;5091368;28;20410;-42
2023/04/01 07:55:44;;;;;;;2.10;0.60;;;8.60;1.00;;;;;;5091217;28;20531;-44
2023/04/01 07:58:35;;;;;;;1.73;0.90;;;8.70;99.90;;;;;;5090768;28;20464;-44
2023/04/01 08:01:33;;;;;;;2.03;1.10;;;8.70;99.90;;;;;;5090185;28;20418;-45
2023/04/01 08:04:12;;;;;;;2.37;0.80;;;8.70;99.90;;;;;;5093170;28;20501;-43
2023/04/01 08:06:37;;;;;;;2.07;0.70;;;8.70;99.90;;;;;;5091605;28;20682;-42
2023/04/01 08:09:36;;;;;;;5.07;1.17;;;8.60;99.90;;;;;;5092843;28;20979;-43
2023/04/01 08:12:18;;;;;;;2.07;1.20;;;8.60;1.00;;;;;;5091521;28;20245;-44
2023/04/01 08:14:52;;;;;;;1.83;0.93;;;8.60;99.90;;;;;;5093280;28;20417;-49
2023/04/01 08:17:47;;;;;;;3.87;1.10;;;8.50;31.60;;;;;;5093371;28;20490;-44
2023/04/01 08:20:21;;;;;;;1.87;0.70;;;8.70;65.40;;;;;;5092973;28;20418;-44
2023/04/01 08:22:52;;;;;;;4.20;0.77;;;8.60;99.90;;;;;;5093851;28;20421;-44
2023/04/01 08:25:23;;;;;;;3.13;1.07;;;8.60;99.90;;;;;;5092529;28;20403;-44
2023/04/01 08:28:16;;;;;;;2.00;0.97;;;8.60;99.90;;;;;;5075051;28;20895;-43
2023/04/01 08:30:56;;;;;;;1.73;1.07;;;8.50;99.90;;;;;;5092213;28;20507;-44
2023/04/01 08:33:30;;;;;;;3.63;1.00;;;8.40;99.90;;;;;;5092644;28;20475;-45
2023/04/01 08:36:19;;;;;;;2.90;0.47;;;8.50;1.00;;;;;;5092361;28;20513;-45
2023/04/01 08:39:06;;;;;;;2.60;1.17;;;8.50;1.00;;;;;;5084782;28;20790;-43
2023/04/01 08:42:00;;;;;;;1.37;0.70;;;8.50;1.00;;;;;;5087566;28;20844;-43
2023/04/01 08:44:52;;;;;;;1.63;0.60;;;8.50;1.00;;;;;;5092774;28;20438;-43
2023/04/01 08:47:54;;;;;;;1.97;0.80;;;8.50;1.00;;;;;;5091093;28;20430;-46
2023/04/01 08:50:55;;;;;;;1.50;0.60;;;8.60;1.00;;;;;;5092140;28;20461;-44
2023/04/01 08:53:42;;;;;;;2.17;0.83;;;8.50;1.00;;;;;;5094750;28;20440;-43
2023/04/01 08:56:17;;;;;;;1.80;0.70;;;8.60;1.00;;;;;;5094539;28;20461;-44
2023/04/01 08:58:54;;;;;;;1.47;0.70;;;8.90;1.00;;;;;;5090632;28;20433;-45
2023/04/01 09:01:29;;;;;;;3.20;1.30;;;9.20;1.00;;;;;;5091051;28;20429;-44
2023/04/01 09:04:13;;;;;;;1.90;0.73;;;9.40;1.00;;;;;;5091220;28;20396;-44
2023/04/01 09:06:57;;;;;;;1.67;0.73;;;9.80;99.90;;;;;;5092459;28;20488;-44
2023/04/01 09:09:51;;;;;;;3.17;0.60;;;10.10;1.00;;;;;;5091321;28;20553;-47
2023/04/01 09:12:37;;;;;;;2.53;0.80;;;10.30;1.00;;;;;;5091724;28;20429;-44
2023/04/01 09:15:06;;;;;;;1.03;0.63;;;10.50;1.00;;;;;;5074305;28;20506;-43
2023/04/01 09:17:40;;;;;;;1.60;0.73;;;10.40;99.90;;;;;;5092586;28;20425;-46
2023/04/01 09:20:21;;;;;;;0.90;0.40;;;10.30;99.90;;;;;;5092861;28;20406;-44
2023/04/01 09:23:10;;;;;;;0.87;0.53;;;10.70;99.90;;;;;;5090650;28;20418;-43
2023/04/01 09:26:00;;;;;;;1.20;0.53;;;11.20;99.90;;;;;;5090410;28;20431;-46
2023/04/01 09:28:41;;;;;;;1.03;0.50;;;11.40;99.90;;;;;;5091462;28;20466;-45
2023/04/01 09:31:22;;;;;;;1.50;0.43;;;11.80;56.00;;;;;;5090530;28;20535;-45
2023/04/01 09:33:59;;;;;;;2.07;0.80;;;11.70;1.00;;;;;;5091366;28;20410;-45
2023/04/01 09:36:40;;;;;;;1.63;0.70;;;11.10;99.90;;;;;;5090284;28;20433;-43
2023/04/01 09:39:28;;;;;;;0.90;0.50;;;10.50;99.90;;;;;;5089054;28;20438;-45
2023/04/01 09:42:00;;;;;;;0.97;0.60;;;9.90;1.00;;;;;;5096099;28;20414;-43
2023/04/01 09:44:36;;;;;;;1.43;0.83;;;9.70;1.00;;;;;;5095836;28;20796;-45
2023/04/01 09:47:27;;;;;;;2.70;0.87;;;9.60;99.90;;;;;;5094403;28;20422;-46
2023/04/01 09:50:17;;;;;;;2.60;1.20;;;9.70;99.90;;;;;;5094585;28;20478;-44
2023/04/01 09:53:10;;;;;;;1.20;0.70;;;9.50;99.90;;;;;;5092836;28;20557;-45
2023/04/01 09:56:06;;;;;;;0.93;0.50;;;9.40;99.90;;;;;;5092819;28;20487;-45
2023/04/01 09:58:55;;;;;;;1.30;0.67;;;9.40;1.00;;;;;;5090392;28;20399;-43
2023/04/01 10:01:27;;;;;;;1.00;0.47;;;9.20;99.90;;;;;;5092898;28;20883;-42
2023/04/01 10:04:11;;;;;;;1.00;0.60;;;9.00;2.60;;;;;;5093743;28;20429;-44
2023/04/01 10:07:07;;;;;;;1.40;0.77;;;9.10;99.90;;;;;;5091503;28;20558;-44
2023/04/01 10:10:00;;;;;;;0.80;0.50;;;9.10;99.90;;;;;;5091717;28;20464;-44
2023/04/01 10:12:37;;;;;;;1.63;0.60;;;9.10;1.00;;;;;;5094056;28;20429;-43
2023/04/01 10:15:20;;;;;;;2.20;0.70;;;9.10;1.00;;;;;;5093050;28;20421;-44
2023/04/01 10:18:11;;;;;;;1.07;0.50;;;9.40;99.90;;;;;;5091625;28;20460;-44
2023/04/01 10:21:08;;;;;;;1.10;0.50;;;9.20;99.90;;;;;;5092681;28;20466;-44
2023/04/01 10:24:03;;;;;;;0.83;0.43;;;9.50;1.00;;;;;;5092744;28;20708;-44
2023/04/01 10:27:10;;;;;;;1.00;0.50;;;9.60;1.00;;;;;;5089384;28;20470;-42
2023/04/01 10:29:59;;;;;;;0.87;0.43;;;9.80;99.90;;;;;;5091934;28;20812;-42
2023/04/01 10:33:06;;;;;;;1.27;0.30;;;10.10;19.10;;;;;;5089889;28;20780;-43
2023/04/01 10:35:41;;;;;;;1.07;0.50;;;10.40;99.90;;;;;;5093830;28;20414;-42
2023/04/01 10:38:44;;;;;;;0.83;0.37;;;10.50;99.90;;;;;;5091384;28;20444;-44
2023/04/01 10:41:10;;;;;;;1.47;0.50;;;10.80;99.90;;;;;;5093452;28;20681;-44
2023/04/01 10:44:01;;;;;;;3.10;0.80;;;11.20;1.00;;;;;;5089829;28;20507;-42
2023/04/01 10:46:52;;;;;;;1.63;0.80;;;11.60;1.00;;;;;;5088033;28;20180;-45
2023/04/01 10:49:47;;;;;;;2.70;1.23;;;12.00;1.00;;;;;;5091114;28;20462;-43
2023/04/01 10:53:03;;;;;;;0.83;0.30;;;12.20;1.00;;;;;;5089226;28;20418;-43
2023/04/01 10:55:37;;;;;;;1.90;0.90;;;11.80;1.00;;;;;;5028182;28;20519;-42
2023/04/01 10:58:25;;;;;;;1.10;0.50;;;11.70;99.90;;;;;;5078403;28;20411;-45
2023/04/01 11:01:28;;;;;;;1.77;0.87;;;11.40;45.30;;;;;;5090895;28;20985;-44
2023/04/01 11:04:18;;;;;;;1.30;0.80;;;10.80;99.90;;;;;;5092235;28;20406;-44
2023/04/01 11:07:05;;;;;;;1.20;0.67;;;10.60;1.00;;;;;;5092113;28;20419;-43
2023/04/01 11:10:22;;;;;;;1.13;0.50;;;10.50;99.90;;;;;;5089828;28;20918;-43
2023/04/01 11:12:56;;;;;;;1.10;0.53;;;10.60;99.90;;;;;;5056830;28;20757;-44
2023/04/01 11:15:49;;;;;;;1.90;0.40;;;10.60;99.90;;;;;;5093320;28;20425;-43
2023/04/01 11:18:34;;;;;;;1.20;0.60;;;10.50;99.90;;;;;;5092906;28;20501;-42
2023/04/01 11:21:07;;;;;;;1.53;0.50;;;10.60;99.90;;;;;;5093557;28;20423;-44
2023/04/01 11:24:10;;;;;;;1.10;0.60;;;10.50;54.70;;;;;;5090961;28;20418;-45
2023/04/01 11:27:03;;;;;;;0.70;0.40;;;10.70;99.90;;;;;;5092334;28;20473;-43
2023/04/01 11:29:41;;;;;;;1.63;0.37;;;10.70;1.00;;;;;;5092946;28;20739;-45
2023/04/01 11:32:15;;;;;;;1.33;0.43;;;10.60;1.00;;;;;;5093287;28;20432;-46
2023/04/01 11:34:50;;;;;;;0.77;0.33;;;10.80;1.00;;;;;;5091635;28;20486;-44
2023/04/01 11:37:19;;;;;;;0.90;0.50;;;11.10;1.00;;;;;;5091814;28;20834;-41
2023/04/01 11:40:06;;;;;;;1.23;0.50;;;11.00;1.00;;;;;;5090749;28;20505;-44
2023/04/01 11:42:43;;;;;;;0.93;0.53;;;11.00;99.90;;;;;;5091714;28;20480;-42
2023/04/01 11:45:58;;;;;;;0.80;0.40;;;11.00;1.00;;;;;;5090605;28;20433;-44
2023/04/01 11:48:50;;;;;;;1.77;1.27;;;10.70;1.00;;;;;;5000996;28;20529;-44
2023/04/01 11:51:20;;;;;;;1.43;1.03;;;10.80;1.00;;;;;;5004498;28;20541;-43
2023/04/01 11:54:25;;;;;;;1.20;0.90;;;10.50;1.00;;;;;;5078003;28;20795;-42
2023/04/01 11:57:18;;;;;;;2.03;0.63;;;10.40;54.10;;;;;;5078800;28;20426;-43
2023/04/01 11:59:49;;;;;;;1.67;1.07;;;10.40;7.50;;;;;;5077100;28;20758;-45
2023/04/01 12:02:41;;;;;;;1.27;0.57;;;10.70;99.90;;;;;;5087539;28;20430;-44
2023/04/01 12:05:21;;;;;;;0.90;0.60;;;10.80;1.00;;;;;;5092032;28;20467;-44
2023/04/01 12:07:47;;;;;;;2.80;0.60;;;10.90;1.00;;;;;;5091787;28;20836;-44
2023/04/01 12:10:15;;;;;;;1.50;0.60;;;11.00;1.00;;;;;;5092690;28;20750;-42
2023/04/01 12:13:09;;;;;;;1.13;0.50;;;11.20;1.00;;;;;;5091019;28;20267;-43
2023/04/01 12:16:07;;;;;;;0.80;0.40;;;11.00;99.90;;;;;;5092898;28;20799;-43
2023/04/01 12:18:35;;;;;;;0.90;0.50;;;10.90;1.00;;;;;;5053660;28;20411;-43
2023/04/01 12:21:40;;;;;;;1.40;0.30;;;11.20;99.90;;;;;;5091650;28;20438;-44
2023/04/01 12:24:26;;;;;;;0.70;0.30;;;11.20;99.90;;;;;;5059594;28;20434;-43
2023/04/01 12:27:01;;;;;;;0.80;0.40;;;11.10;99.90;;;;;;5092412;28;20557;-43
2023/04/01 12:29:48;;;;;;;0.83;0.40;;;10.70;1.00;;;;;;5093335;28;20493;-43
2023/04/01 12:32:45;;;;;;;1.07;0.57;;;10.60;37.80;;;;;;5091871;28;20476;-43
2023/04/01 12:35:43;;;;;;;1.33;0.53;;;10.50;1.00;;;;;;5091061;28;20418;-44
2023/04/01 12:38:35;;;;;;;1.23;0.70;;;10.40;40.60;;;;;;5060219;28;20907;-44
2023/04/01 12:41:17;;;;;;;4.57;2.97;;;10.50;99.90;;;;;;5090626;28;20434;-44
2023/04/01 12:44:27;;;;;;;1.83;0.50;;;10.50;99.90;;;;;;5094052;28;20418;-44
2023/04/01 12:47:08;;;;;;;1.43;1.00;;;11.00;99.90;;;;;;5054546;28;20449;-45
2023/04/01 12:49:52;;;;;;;2.20;1.50;;;11.70;1.00;;;;;;5092281;28;20457;-44
2023/04/01 12:52:28;;;;;;;1.10;0.60;;;12.20;99.90;;;;;;5092074;28;20525;-44
2023/04/01 12:54:56;;;;;;;1.10;0.80;;;12.40;1.00;;;;;;5090977;28;20529;-44
2023/04/01 12:57:34;;;;;;;1.60;0.73;;;12.60;1.00;;;;;;5091895;28;20430;-44
2023/04/01 13:00:11;;;;;;;0.97;0.37;;;12.70;99.90;;;;;;5092680;28;20426;-45
2023/04/01 13:02:48;;;;;;;3.50;1.20;;;12.50;1.00;;;;;;5090707;28;20425;-43
2023/04/01 13:05:40;;;;;;;4.40;1.97;;;12.00;1.00;;;;;;5089418;28;20835;-44
2023/04/01 13:08:09;;;;;;;1.60;0.80;;;11.90;1.00;;;;;;5052044;28;20418;-43
2023/04/01 13:11:09;;;;;;;1.53;0.63;;;11.90;1.00;;;;;;5090076;28;20531;-43
2023/04/01 13:13:59;;;;;;;1.33;0.57;;;12.10;1.00;;;;;;5084548;28;20430;-43
2023/04/01 13:16:30;;;;;;;2.60;0.90;;;11.60;1.00;;;;;;5094433;28;20433;-44
2023/04/01 13:19:25;;;;;;;3.60;0.70;;;11.60;1.00;;;;;;5094116;28;20418;-43
2023/04/01 13:22:00;;;;;;;1.70;1.00;;;11.60;1.00;;;;;;5096589;28;20426;-43
2023/04/01 13:24:51;;;;;;;2.37;0.93;;;11.70;1.00;;;;;;5099303;28;20412;-44
2023/04/01 13:27:23;;;;;;;1.17;0.60;;;11.50;1.00;;;;;;5096770;28;20566;-42
2023/04/01 13:30:20;;;;;;;1.07;0.57;;;11.20;1.00;;;;;;5096268;28;20522;-46
2023/04/01 13:33:09;;;;;;;5.63;0.70;;;11.00;5.40;;;;;;5094457;28;20425;-43
2023/04/01 13:35:43;;;;;;;2.33;0.70;;;10.80;99.90;;;;;;5093965;28;20750;-44
2023/04/01 13:38:22;;;;;;;1.57;0.80;;;10.70;99.90;;;;;;5094309;28;20715;-45
2023/04/01 13:41:17;;;;;;;1.27;0.90;;;10.80;1.00;;;;;;5094536;28;20457;-44
2023/04/01 13:43:50;;;;;;;0.87;0.50;;;11.00;99.90;;;;;;5095706;28;20426;-43
2023/04/01 13:46:38;;;;;;;1.43;0.50;;;11.10;99.90;;;;;;5093745;28;20834;-45
2023/04/01 13:49:03;;;;;;;1.60;0.60;;;11.00;99.90;;;;;;5094346;28;20414;-42
2023/04/01 13:52:07;;;;;;;0.97;0.50;;;11.00;99.90;;;;;;5093222;28;20945;-43